createdAt,value
2022-12-29T00:01:56.584Z,98518.28
2022-12-29T00:04:25.785Z,98514.22
2022-12-29T00:06:55.719Z,98518.63
2022-12-29T00:09:27.756Z,98519.72
2022-12-29T00:11:56.840Z,98518.69
2022-12-29T00:14:43.250Z,98516.16
2022-12-29T00:17:12.391Z,98508.72
2022-12-29T00:19:59.446Z,98494.16
2022-12-29T00:22:46.097Z,98495.75
2022-12-29T00:25:35.133Z,98495.50
2022-12-29T00:28:21.815Z,98497.16
2022-12-29T00:31:08.482Z,98496.41
2022-12-29T00:33:55.100Z,98482.78
2022-12-29T00:36:29.805Z,98494.38
2022-12-29T00:39:22.622Z,98507.09
2022-12-29T00:42:10.634Z,98514.88
2022-12-29T00:44:40.033Z,98505.84
2022-12-29T00:47:09.187Z,98508.97
2022-12-29T00:49:37.498Z,98505.47
2022-12-29T00:52:09.322Z,98505.16
2022-12-29T00:54:40.152Z,98501.91
2022-12-29T00:57:13.236Z,98491.22
2022-12-29T00:59:44.467Z,98484.06
2022-12-29T01:02:14.173Z,98482.31
2022-12-29T01:04:43.503Z,98486.84
2022-12-29T01:07:12.645Z,98488.47
2022-12-29T01:09:59.165Z,98489.00
2022-12-29T01:12:46.119Z,98474.59
2022-12-29T01:15:17.137Z,98470.97
2022-12-29T01:17:47.531Z,98468.44
2022-12-29T01:20:16.970Z,98477.50
2022-12-29T01:22:46.121Z,98474.94
2022-12-29T01:25:15.674Z,98472.97
2022-12-29T01:27:46.630Z,98473.66
2022-12-29T01:30:15.854Z,98476.88
2022-12-29T01:32:45.010Z,98471.44
2022-12-29T01:35:17.112Z,98476.47
2022-12-29T01:37:47.525Z,98479.69
2022-12-29T01:40:17.953Z,98481.81
2022-12-29T01:42:49.617Z,98482.63
2022-12-29T01:45:20.248Z,98480.03
2022-12-29T01:47:55.520Z,98477.03
2022-12-29T01:50:30.906Z,98473.84
2022-12-29T01:53:06.406Z,98475.72
2022-12-29T01:55:42.611Z,98468.28
2022-12-29T01:58:15.842Z,98467.06
2022-12-29T02:00:45.164Z,98456.88
2022-12-29T02:03:14.735Z,98453.03
2022-12-29T02:05:50.074Z,98451.94
2022-12-29T02:08:19.824Z,98439.19
2022-12-29T02:10:50.389Z,98440.91
2022-12-29T02:13:20.955Z,98437.59
2022-12-29T02:16:01.378Z,98430.81
2022-12-29T02:18:43.801Z,98425.13
2022-12-29T02:21:50.353Z,98426.75
2022-12-29T02:25:31.560Z,98412.63
2022-12-29T02:28:19.051Z,98413.69
2022-12-29T02:31:08.376Z,98411.63
2022-12-29T02:33:54.017Z,98401.31
2022-12-29T02:36:31.325Z,98406.56
2022-12-29T02:39:11.549Z,98413.22
2022-12-29T02:41:53.639Z,98409.50
2022-12-29T02:44:35.515Z,98415.88
2022-12-29T02:47:16.549Z,98412.41
2022-12-29T02:49:56.350Z,98409.00
2022-12-29T02:52:32.498Z,98413.34
2022-12-29T02:55:01.132Z,98415.25
2022-12-29T02:57:37.551Z,98405.44
2022-12-29T03:00:11.231Z,98410.31
2022-12-29T03:03:25.024Z,98407.09
2022-12-29T03:06:13.917Z,98410.84
2022-12-29T03:08:51.245Z,98408.91
2022-12-29T03:11:37.972Z,98406.03
2022-12-29T03:14:34.221Z,98411.84
2022-12-29T03:17:11.436Z,98409.09
2022-12-29T03:19:49.913Z,98410.88
2022-12-29T03:22:31.927Z,98413.16
2022-12-29T03:25:11.963Z,98420.94
2022-12-29T03:27:46.905Z,98411.00
2022-12-29T03:30:17.030Z,98416.94
2022-12-29T03:32:51.218Z,98406.97
2022-12-29T03:35:27.182Z,98408.09
2022-12-29T03:38:05.295Z,98399.53
2022-12-29T03:40:36.823Z,98415.75
2022-12-29T03:43:06.941Z,98409.00
2022-12-29T03:45:39.092Z,98408.66
2022-12-29T03:48:08.429Z,98402.84
2022-12-29T03:50:42.064Z,98410.31
2022-12-29T03:53:12.020Z,98403.84
2022-12-29T03:55:42.423Z,98410.47
2022-12-29T03:58:13.067Z,98409.63
2022-12-29T04:01:14.580Z,98410.13
2022-12-29T04:03:43.869Z,98398.63
2022-12-29T04:06:14.834Z,98401.88
2022-12-29T04:08:50.889Z,98406.06
2022-12-29T04:11:20.177Z,98395.69
2022-12-29T04:13:49.514Z,98400.56
2022-12-29T04:16:23.235Z,98404.00
2022-12-29T04:18:53.406Z,98397.38
2022-12-29T04:21:24.930Z,98397.66
2022-12-29T04:23:54.339Z,98394.13
2022-12-29T04:26:23.461Z,98396.84
2022-12-29T04:28:59.549Z,98389.75
2022-12-29T04:31:37.692Z,98396.69
2022-12-29T04:34:07.161Z,98402.38
2022-12-29T04:36:37.851Z,98403.47
2022-12-29T04:39:07.826Z,98396.34
2022-12-29T04:41:38.233Z,98405.34
2022-12-29T04:44:09.706Z,98398.56
2022-12-29T04:47:11.305Z,98407.50
2022-12-29T04:50:18.896Z,98410.75
2022-12-29T04:52:59.055Z,98405.56
2022-12-29T04:55:29.402Z,98409.94
2022-12-29T04:57:58.659Z,98406.91
2022-12-29T05:00:29.346Z,98411.91
2022-12-29T05:03:02.594Z,98415.78
2022-12-29T05:05:32.575Z,98414.16
2022-12-29T05:08:05.639Z,98409.97
2022-12-29T05:10:34.978Z,98401.72
2022-12-29T05:13:13.363Z,98405.41
2022-12-29T05:15:51.354Z,98400.66
2022-12-29T05:18:21.375Z,98388.84
2022-12-29T05:20:51.875Z,98398.72
2022-12-29T05:23:24.568Z,98397.09
2022-12-29T05:26:07.177Z,98410.03
2022-12-29T05:29:09.366Z,98407.28
2022-12-29T05:31:38.660Z,98407.94
2022-12-29T05:34:09.194Z,98406.81
2022-12-29T05:36:38.429Z,98407.78
2022-12-29T05:39:11.625Z,98399.03
2022-12-29T05:41:40.985Z,98400.53
2022-12-29T05:44:35.859Z,98410.69
2022-12-29T05:47:27.183Z,98412.13
2022-12-29T05:50:14.966Z,98413.94
2022-12-29T05:53:02.401Z,98414.41
2022-12-29T05:55:33.031Z,98412.69
2022-12-29T05:58:02.619Z,98416.88
2022-12-29T06:00:31.825Z,98411.88
2022-12-29T06:03:02.158Z,98413.50
2022-12-29T06:05:31.432Z,98420.28
2022-12-29T06:08:00.922Z,98416.69
2022-12-29T06:10:32.143Z,98417.81
2022-12-29T06:13:11.177Z,98419.66
2022-12-29T06:15:45.233Z,98415.78
2022-12-29T06:18:19.616Z,98421.31
2022-12-29T06:20:52.143Z,98432.59
2022-12-29T06:23:21.687Z,98438.59
2022-12-29T06:25:52.439Z,98448.25
2022-12-29T06:28:21.789Z,98451.00
2022-12-29T06:30:51.193Z,98450.69
2022-12-29T06:33:22.061Z,98441.97
2022-12-29T06:35:51.244Z,98445.97
2022-12-29T06:38:20.671Z,98442.59
2022-12-29T06:40:51.191Z,98444.22
2022-12-29T06:43:23.156Z,98454.22
2022-12-29T06:46:21.830Z,98438.22
2022-12-29T06:48:51.349Z,98443.78
2022-12-29T06:51:20.499Z,98435.22
2022-12-29T06:53:50.243Z,98445.72
2022-12-29T06:56:22.456Z,98444.56
2022-12-29T06:58:52.377Z,98458.97
2022-12-29T07:01:21.758Z,98449.75
2022-12-29T07:03:51.479Z,98452.34
2022-12-29T07:06:20.861Z,98444.41
2022-12-29T07:08:50.098Z,98450.06
2022-12-29T07:11:19.635Z,98454.78
2022-12-29T07:13:53.223Z,98455.91
2022-12-29T07:16:23.028Z,98458.34
2022-12-29T07:18:52.732Z,98458.50
2022-12-29T07:21:22.952Z,98458.16
2022-12-29T07:23:53.373Z,98458.97
2022-12-29T07:26:22.915Z,98458.94
2022-12-29T07:28:53.613Z,98464.56
2022-12-29T07:31:25.503Z,98455.81
2022-12-29T07:33:55.139Z,98448.66
2022-12-29T07:36:27.996Z,98441.72
2022-12-29T07:39:00.157Z,98453.75
2022-12-29T07:41:30.169Z,98456.63
2022-12-29T07:44:00.965Z,98466.50
2022-12-29T07:46:59.419Z,98466.31
2022-12-29T07:49:29.771Z,98470.69
2022-12-29T07:51:58.999Z,98466.88
2022-12-29T07:54:28.780Z,98467.50
2022-12-29T07:56:58.595Z,98463.63
2022-12-29T07:59:29.743Z,98469.53
2022-12-29T08:01:59.190Z,98472.81
2022-12-29T08:04:28.678Z,98473.91
2022-12-29T08:06:58.380Z,98460.03
2022-12-29T08:09:27.686Z,98475.31
2022-12-29T08:11:57.545Z,98472.06
2022-12-29T08:14:28.633Z,98465.59
2022-12-29T08:16:57.780Z,98466.28
2022-12-29T08:19:27.389Z,98473.25
2022-12-29T08:21:57.045Z,98469.81
2022-12-29T08:24:26.310Z,98469.81
2022-12-29T08:26:56.085Z,98465.81
2022-12-29T08:29:25.718Z,98470.13
2022-12-29T08:31:56.585Z,98474.22
2022-12-29T08:34:26.253Z,98464.78
2022-12-29T08:36:55.739Z,98469.47
2022-12-29T08:39:25.127Z,98471.59
2022-12-29T08:41:54.245Z,98476.47
2022-12-29T08:44:24.278Z,98473.44
2022-12-29T08:46:55.390Z,98475.31
2022-12-29T08:49:24.859Z,98465.41
2022-12-29T08:51:54.186Z,98473.59
2022-12-29T08:54:24.011Z,98485.03
2022-12-29T08:56:54.804Z,98482.63
2022-12-29T08:59:28.594Z,98488.25
2022-12-29T09:02:00.417Z,98475.94
2022-12-29T09:04:30.132Z,98484.13
2022-12-29T09:06:59.527Z,98461.03
2022-12-29T09:09:28.613Z,98473.69
2022-12-29T09:12:02.964Z,98474.47
2022-12-29T09:14:32.177Z,98479.91
2022-12-29T09:17:20.404Z,98464.72
2022-12-29T09:19:49.749Z,98469.53
2022-12-29T09:22:19.011Z,98481.06
2022-12-29T09:24:48.275Z,98471.34
2022-12-29T09:27:18.104Z,98464.16
2022-12-29T09:29:47.719Z,98460.84
2022-12-29T09:32:19.028Z,98466.25
2022-12-29T09:34:49.373Z,98466.44
2022-12-29T09:37:18.665Z,98459.63
2022-12-29T09:39:54.114Z,98464.81
2022-12-29T09:42:32.188Z,98457.75
2022-12-29T09:45:16.338Z,98468.53
2022-12-29T09:47:48.449Z,98462.88
2022-12-29T09:50:26.863Z,98459.38
2022-12-29T09:53:03.773Z,98455.56
2022-12-29T09:55:39.175Z,98452.16
2022-12-29T09:58:19.702Z,98448.56
2022-12-29T10:00:56.245Z,98446.41
2022-12-29T10:03:30.396Z,98442.00
2022-12-29T10:06:13.000Z,98445.34
2022-12-29T10:08:48.701Z,98439.28
2022-12-29T10:11:33.291Z,98432.19
2022-12-29T10:14:23.048Z,98441.41
2022-12-29T10:17:02.735Z,98433.09
2022-12-29T10:19:57.109Z,98429.22
2022-12-29T10:22:47.711Z,98426.88
2022-12-29T10:25:21.506Z,98426.38
2022-12-29T10:27:52.962Z,98421.69
2022-12-29T10:30:22.652Z,98427.50
2022-12-29T10:32:56.348Z,98419.75
2022-12-29T10:35:33.162Z,98417.16
2022-12-29T10:38:08.107Z,98416.38
2022-12-29T10:40:44.696Z,98412.75
2022-12-29T10:43:27.780Z,98415.22
2022-12-29T10:46:04.459Z,98409.84
2022-12-29T10:48:37.693Z,98408.44
2022-12-29T10:51:10.927Z,98404.00
2022-12-29T10:53:47.990Z,98403.38
2022-12-29T10:56:31.764Z,98407.44
2022-12-29T10:59:08.470Z,98403.72
2022-12-29T11:01:49.130Z,98399.84
2022-12-29T11:04:37.869Z,98398.34
2022-12-29T11:07:15.901Z,98394.44
2022-12-29T11:09:47.221Z,98384.22
2022-12-29T11:12:27.337Z,98396.31
2022-12-29T11:15:17.515Z,98397.22
2022-12-29T11:17:50.465Z,98400.59
2022-12-29T11:20:38.732Z,98405.47
2022-12-29T11:23:31.198Z,98402.34
2022-12-29T11:26:31.780Z,98389.63
2022-12-29T11:29:24.287Z,98386.06
2022-12-29T11:31:56.562Z,98382.53
2022-12-29T11:34:28.757Z,98381.75
2022-12-29T11:37:04.779Z,98388.19
2022-12-29T11:39:43.332Z,98381.00
2022-12-29T11:42:22.593Z,98387.81
2022-12-29T11:44:53.742Z,98380.25
2022-12-29T11:47:30.063Z,98389.88
2022-12-29T11:50:02.828Z,98388.28
2022-12-29T11:52:37.412Z,98387.50
2022-12-29T11:55:23.289Z,98385.91
2022-12-29T11:57:55.504Z,98382.75
2022-12-29T12:00:30.293Z,98373.94
2022-12-29T12:03:02.196Z,98381.94
2022-12-29T12:05:40.916Z,98375.97
2022-12-29T12:08:21.317Z,98380.34
2022-12-29T12:11:01.154Z,98373.94
2022-12-29T12:13:37.460Z,98370.75
2022-12-29T12:16:12.126Z,98362.75
2022-12-29T12:18:49.420Z,98364.34
2022-12-29T12:21:27.559Z,98364.31
2022-12-29T12:24:16.368Z,98354.31
2022-12-29T12:27:00.997Z,98361.47
2022-12-29T12:29:40.074Z,98353.84
2022-12-29T12:32:19.597Z,98355.81
2022-12-29T12:34:51.233Z,98357.75
2022-12-29T12:38:03.012Z,98338.41
2022-12-29T12:41:15.511Z,98352.56
2022-12-29T12:43:53.989Z,98341.66
2022-12-29T12:47:05.098Z,98351.69
2022-12-29T12:50:29.285Z,98350.44
2022-12-29T12:53:24.597Z,98360.38
2022-12-29T12:56:21.719Z,98361.03
2022-12-29T12:59:07.326Z,98340.22
2022-12-29T13:01:49.123Z,98342.78
2022-12-29T13:04:53.365Z,98344.97
2022-12-29T13:07:36.643Z,98345.00
2022-12-29T13:10:28.374Z,98343.38
2022-12-29T13:13:18.909Z,98346.94
2022-12-29T13:15:56.799Z,98335.34
2022-12-29T13:18:37.580Z,98345.59
2022-12-29T13:21:16.934Z,98346.38
2022-12-29T13:23:56.972Z,98343.25
2022-12-29T13:26:34.713Z,98340.00
2022-12-29T13:29:14.831Z,98347.34
2022-12-29T13:31:58.013Z,98355.44
2022-12-29T13:34:38.840Z,98354.56
2022-12-29T13:37:16.105Z,98362.16
2022-12-29T13:39:52.474Z,98359.69
2022-12-29T13:42:23.568Z,98362.06
2022-12-29T13:45:02.001Z,98358.19
2022-12-29T13:47:38.981Z,98357.03
2022-12-29T13:50:17.834Z,98357.97
2022-12-29T13:52:57.900Z,98361.72
2022-12-29T13:55:32.052Z,98359.78
2022-12-29T13:58:12.033Z,98353.38
2022-12-29T14:00:52.044Z,98354.28
2022-12-29T14:03:51.520Z,98366.81
2022-12-29T14:06:29.228Z,98372.44
2022-12-29T14:09:01.581Z,98364.72
2022-12-29T14:11:36.780Z,98369.94
2022-12-29T14:14:16.027Z,98377.56
2022-12-29T14:16:46.956Z,98375.25
2022-12-29T14:19:21.775Z,98375.22
2022-12-29T14:21:57.570Z,98371.03
2022-12-29T14:24:42.168Z,98371.25
2022-12-29T14:27:53.639Z,98370.88
2022-12-29T14:30:52.678Z,98365.13
2022-12-29T14:33:24.786Z,98365.88
2022-12-29T14:35:56.650Z,98373.28
2022-12-29T14:38:32.646Z,98370.66
2022-12-29T14:41:39.142Z,98360.28
2022-12-29T14:44:21.516Z,98362.31
2022-12-29T14:47:00.254Z,98355.03
2022-12-29T14:49:33.830Z,98356.66
2022-12-29T14:52:22.516Z,98354.94
2022-12-29T14:55:03.701Z,98357.91
2022-12-29T14:57:38.687Z,98354.75
2022-12-29T15:00:17.930Z,98347.22
2022-12-29T15:02:51.920Z,98347.72
2022-12-29T15:05:34.778Z,98343.50
2022-12-29T15:08:06.745Z,98345.94
2022-12-29T15:10:43.225Z,98352.31
2022-12-29T15:13:23.469Z,98351.34
2022-12-29T15:15:53.849Z,98347.97
2022-12-29T15:18:31.216Z,98349.28
2022-12-29T15:21:03.317Z,98342.53
2022-12-29T15:23:37.061Z,98344.63
2022-12-29T15:26:08.778Z,98341.38
2022-12-29T15:28:43.639Z,98342.66
2022-12-29T15:31:16.525Z,98339.22
2022-12-29T15:33:48.850Z,98357.25
2022-12-29T15:36:24.666Z,98353.66
2022-12-29T15:38:55.571Z,98348.69
2022-12-29T15:41:33.379Z,98357.22
2022-12-29T15:44:17.729Z,98352.78
2022-12-29T15:46:46.954Z,98340.84
2022-12-29T15:49:17.477Z,98353.16
2022-12-29T15:51:47.311Z,98349.94
2022-12-29T15:54:20.725Z,98353.31
2022-12-29T15:56:52.271Z,98359.56
2022-12-29T15:59:31.390Z,98355.44
2022-12-29T16:02:07.127Z,98350.78
2022-12-29T16:05:01.650Z,98356.75
2022-12-29T16:07:39.130Z,98350.41
2022-12-29T16:10:31.445Z,98354.59
2022-12-29T16:13:07.807Z,98349.03
2022-12-29T16:15:37.162Z,98347.97
2022-12-29T16:18:06.655Z,98347.25
2022-12-29T16:20:43.410Z,98348.72
2022-12-29T16:23:22.331Z,98350.47
2022-12-29T16:25:55.635Z,98349.94
2022-12-29T16:28:27.615Z,98348.13
2022-12-29T16:31:04.589Z,98345.91
2022-12-29T16:33:49.851Z,98348.81
2022-12-29T16:36:33.109Z,98340.59
2022-12-29T16:39:28.236Z,98345.84
2022-12-29T16:41:59.439Z,98351.91
2022-12-29T16:44:31.344Z,98354.09
2022-12-29T16:47:21.702Z,98353.91
2022-12-29T16:49:55.271Z,98344.06
2022-12-29T16:52:32.319Z,98358.09
2022-12-29T16:55:03.323Z,98356.59
2022-12-29T16:57:38.529Z,98359.63
2022-12-29T17:00:20.479Z,98361.69
2022-12-29T17:02:51.455Z,98357.28
2022-12-29T17:05:21.496Z,98362.56
2022-12-29T17:07:52.367Z,98360.16
2022-12-29T17:10:21.729Z,98364.44
2022-12-29T17:12:52.397Z,98375.38
2022-12-29T17:15:28.557Z,98381.25
2022-12-29T17:17:58.553Z,98375.78
2022-12-29T17:20:30.689Z,98376.25
2022-12-29T17:23:00.802Z,98375.38
2022-12-29T17:25:36.113Z,98380.56
2022-12-29T17:28:15.052Z,98370.88
2022-12-29T17:30:44.493Z,98376.88
2022-12-29T17:33:18.261Z,98369.44
2022-12-29T17:35:53.237Z,98361.38
2022-12-29T17:38:29.723Z,98363.75
2022-12-29T17:40:59.867Z,98365.28
2022-12-29T17:43:36.758Z,98365.78
2022-12-29T17:46:09.140Z,98365.09
2022-12-29T17:48:38.639Z,98354.97
2022-12-29T17:51:08.354Z,98365.13
2022-12-29T17:53:37.520Z,98362.00
2022-12-29T17:56:07.548Z,98349.00
2022-12-29T17:58:38.122Z,98354.44
2022-12-29T18:01:08.386Z,98340.56
2022-12-29T18:03:41.977Z,98344.25
2022-12-29T18:06:13.414Z,98350.25
2022-12-29T18:08:44.069Z,98344.63
2022-12-29T18:11:32.069Z,98343.09
2022-12-29T18:14:02.693Z,98348.09
2022-12-29T18:16:32.320Z,98347.63
2022-12-29T18:19:01.485Z,98354.56
2022-12-29T18:21:30.669Z,98354.88
2022-12-29T18:24:00.135Z,98349.13
2022-12-29T18:26:35.591Z,98361.34
2022-12-29T18:29:06.322Z,98350.69
2022-12-29T18:31:36.764Z,98356.66
2022-12-29T18:34:15.783Z,98353.97
2022-12-29T18:36:45.088Z,98348.03
2022-12-29T18:39:14.182Z,98351.97
2022-12-29T18:41:43.402Z,98342.22
2022-12-29T18:44:15.095Z,98340.03
2022-12-29T18:46:44.429Z,98343.50
2022-12-29T18:49:15.159Z,98341.88
2022-12-29T18:51:44.473Z,98343.97
2022-12-29T18:54:29.249Z,98337.97
2022-12-29T18:56:59.482Z,98335.59
2022-12-29T18:59:30.203Z,98332.81
2022-12-29T19:01:59.427Z,98338.75
2022-12-29T19:04:29.802Z,98341.00
2022-12-29T19:06:59.432Z,98335.88
2022-12-29T19:09:30.784Z,98336.75
2022-12-29T19:12:00.063Z,98337.34
2022-12-29T19:14:31.508Z,98330.81
2022-12-29T19:17:00.757Z,98331.69
2022-12-29T19:19:30.257Z,98322.66
2022-12-29T19:21:59.654Z,98328.75
2022-12-29T19:24:29.999Z,98328.00
2022-12-29T19:26:59.392Z,98331.34
2022-12-29T19:29:30.721Z,98316.03
2022-12-29T19:32:00.160Z,98325.47
2022-12-29T19:34:31.632Z,98326.47
2022-12-29T19:37:01.378Z,98325.53
2022-12-29T19:39:36.187Z,98324.16
2022-12-29T19:42:05.944Z,98317.81
2022-12-29T19:44:37.021Z,98310.16
2022-12-29T19:47:25.610Z,98311.97
2022-12-29T19:49:58.079Z,98310.03
2022-12-29T19:52:29.932Z,98314.59
2022-12-29T19:55:01.510Z,98304.09
2022-12-29T19:57:32.769Z,98296.19
2022-12-29T20:00:05.086Z,98298.97
2022-12-29T20:02:41.801Z,98296.66
2022-12-29T20:05:12.471Z,98298.28
2022-12-29T20:07:44.997Z,98296.25
2022-12-29T20:10:14.823Z,98288.03
2022-12-29T20:12:44.359Z,98294.94
2022-12-29T20:15:16.546Z,98302.78
2022-12-29T20:20:45.674Z,98306.69
2022-12-29T20:23:15.987Z,98305.59
2022-12-29T20:25:56.279Z,98298.22
2022-12-29T20:28:27.613Z,98302.88
2022-12-29T20:31:01.954Z,98310.63
2022-12-29T20:33:33.787Z,98305.59
2022-12-29T20:36:09.505Z,98304.78
2022-12-29T20:38:40.089Z,98307.88
2022-12-29T20:41:18.159Z,98305.59
2022-12-29T20:43:49.356Z,98299.94
2022-12-29T20:46:32.858Z,98292.09
2022-12-29T20:49:05.460Z,98300.50
2022-12-29T20:52:04.578Z,98297.53
2022-12-29T20:54:26.651Z,98301.44
2022-12-29T20:56:56.246Z,98299.00
2022-12-29T20:59:29.547Z,98301.44
2022-12-29T21:02:01.949Z,98291.31
2022-12-29T21:04:49.942Z,98295.44
2022-12-29T21:07:21.910Z,98285.09
2022-12-29T21:09:51.835Z,98292.69
2022-12-29T21:12:21.390Z,98302.72
2022-12-29T21:14:51.846Z,98301.00
2022-12-29T21:17:22.729Z,98302.69
2022-12-29T21:19:52.665Z,98299.34
2022-12-29T21:22:22.278Z,98297.53
2022-12-29T21:24:54.132Z,98293.56
2022-12-29T21:27:24.197Z,98289.53
2022-12-29T21:29:54.769Z,98301.50
2022-12-29T21:32:25.689Z,98299.78
2022-12-29T21:34:55.769Z,98294.75
2022-12-29T21:37:25.104Z,98286.41
2022-12-29T21:39:55.319Z,98286.00
2022-12-29T21:42:28.976Z,98275.41
2022-12-29T21:45:20.426Z,98277.72
2022-12-29T21:48:10.593Z,98271.88
2022-12-29T21:50:57.830Z,98274.97
2022-12-29T21:53:37.917Z,98265.31
2022-12-29T21:56:11.160Z,98263.50
2022-12-29T21:59:00.458Z,98255.78
2022-12-29T22:01:50.782Z,98259.00
2022-12-29T22:04:43.668Z,98253.34
2022-12-29T22:07:32.086Z,98263.72
2022-12-29T22:10:18.892Z,98246.09
2022-12-29T22:13:01.132Z,98241.28
2022-12-29T22:15:32.937Z,98236.09
2022-12-29T22:18:04.372Z,98242.97
2022-12-29T22:20:37.322Z,98245.63
2022-12-29T22:23:10.027Z,98251.97
2022-12-29T22:25:41.287Z,98242.41
2022-12-29T22:28:10.570Z,98242.00
2022-12-29T22:30:39.731Z,98242.25
2022-12-29T22:33:09.278Z,98237.22
2022-12-29T22:35:39.969Z,98234.22
2022-12-29T22:38:09.117Z,98239.44
2022-12-29T22:40:38.422Z,98226.91
2022-12-29T22:43:12.902Z,98230.81
2022-12-29T22:45:43.034Z,98225.28
2022-12-29T22:48:12.372Z,98232.97
2022-12-29T22:50:43.087Z,98242.31
2022-12-29T22:53:12.586Z,98245.19
2022-12-29T22:55:41.754Z,98246.19
2022-12-29T22:58:10.889Z,98240.56
2022-12-29T23:00:40.221Z,98240.91
2022-12-29T23:03:09.504Z,98246.44
2022-12-29T23:05:38.874Z,98244.13
2022-12-29T23:08:10.935Z,98240.69
2022-12-29T23:10:40.093Z,98242.41
2022-12-29T23:13:09.201Z,98246.69
2022-12-29T23:15:38.573Z,98253.03
2022-12-29T23:18:08.032Z,98247.59
2022-12-29T23:20:37.439Z,98240.25
2022-12-29T23:23:06.686Z,98234.03
2022-12-29T23:25:38.821Z,98228.28
2022-12-29T23:28:10.095Z,98235.84
2022-12-29T23:30:39.232Z,98231.75
2022-12-29T23:33:08.336Z,98228.94
2022-12-29T23:35:37.423Z,98228.75
2022-12-29T23:38:06.643Z,98223.91
2022-12-29T23:40:37.311Z,98225.06
2022-12-29T23:43:06.485Z,98212.41
2022-12-29T23:45:37.297Z,98209.41
2022-12-29T23:48:07.636Z,98214.47
2022-12-29T23:50:40.146Z,98217.22
2022-12-29T23:53:10.604Z,98214.38
2022-12-29T23:55:44.786Z,98216.09
2022-12-29T23:58:13.963Z,98227.91
